Time;durP1;ratioP1;P1;durP2;ratioP2;P2;SDS_P1;SDS_P2;PMS_P1;PMS_P2;Temp;Humidity;BMP_temperature;BMP_pressure;BME280_temperature;BME280_humidity;BME280_pressure;Samples;Min_cycle;Max_cycle;Signal;HPM_P1;HPM_P2
2022/11/05 00:10:53;;;;;;;20.13;9.10;;;10.90;99.90;;;;;;4992152;28;20054;-69
2022/11/05 00:19:05;;;;;;;16.70;9.45;;;11.00;99.90;;;;;;4992076;28;20049;-70
2022/11/05 00:26:59;;;;;;;20.45;9.73;;;10.90;99.90;;;;;;4992547;28;20356;-69
2022/11/05 00:29:25;;;;;;;21.52;8.35;;;10.90;99.90;;;;;;4992536;28;20034;-70
2022/11/05 00:31:51;;;;;;;27.08;9.80;;;11.00;99.90;;;;;;4992245;28;20069;-70
2022/11/05 00:34:17;;;;;;;18.42;9.38;;;10.90;99.90;;;;;;4993430;28;20118;-70
2022/11/05 00:36:42;;;;;;;21.00;9.05;;;10.90;99.90;;;;;;4990984;28;20380;-71
2022/11/05 00:39:08;;;;;;;18.55;9.90;;;10.80;99.90;;;;;;4992022;28;20476;-69
2022/11/05 00:41:34;;;;;;;18.92;8.80;;;10.90;99.90;;;;;;4992635;28;20026;-70
2022/11/05 00:46:43;;;;;;;23.80;9.50;;;10.90;99.90;;;;;;4991754;28;20033;-70
2022/11/05 00:52:54;;;;;;;17.83;8.60;;;10.90;99.90;;;;;;4991701;28;20041;-70
2022/11/05 00:54:39;;;;;;;16.65;8.38;;;10.90;99.90;;;;;;4991691;28;20030;-70
2022/11/05 00:57:05;;;;;;;16.23;8.30;;;10.90;99.90;;;;;;4991556;28;20029;-69
2022/11/05 00:59:43;;;;;;;18.95;9.40;;;10.90;99.90;;;;;;4994223;28;20026;-71
2022/11/05 01:02:09;;;;;;;15.50;8.48;;;10.90;99.90;;;;;;4991902;28;20030;-69
2022/11/05 01:04:34;;;;;;;16.98;8.88;;;10.90;99.90;;;;;;4991616;28;20416;-70
2022/11/05 01:07:00;;;;;;;19.45;9.10;;;10.80;99.90;;;;;;4992007;28;20049;-69
2022/11/05 01:09:26;;;;;;;16.95;9.35;;;10.90;99.90;;;;;;4992251;28;20026;-70
2022/11/05 01:11:52;;;;;;;17.27;8.57;;;10.80;99.90;;;;;;4992120;28;20112;-70
2022/11/05 01:14:18;;;;;;;14.20;8.25;;;10.80;99.90;;;;;;4991221;28;20085;-70
2022/11/05 01:16:44;;;;;;;22.25;9.02;;;10.80;99.90;;;;;;4992285;28;20030;-70
2022/11/05 01:19:11;;;;;;;20.77;8.75;;;10.80;99.90;;;;;;4990947;28;20114;-69
2022/11/05 01:21:36;;;;;;;16.67;8.13;;;10.70;99.90;;;;;;4990970;28;20117;-69
2022/11/05 01:24:02;;;;;;;16.40;8.07;;;10.70;99.90;;;;;;4991505;28;20544;-69
2022/11/05 01:26:28;;;;;;;18.48;8.57;;;10.70;99.90;;;;;;4991952;28;20047;-69
2022/11/05 01:28:55;;;;;;;16.90;7.90;;;10.70;99.90;;;;;;4991437;28;20027;-69
2022/11/05 01:31:22;;;;;;;20.60;8.70;;;10.70;99.90;;;;;;4991431;28;20453;-70
2022/11/05 01:33:49;;;;;;;17.23;7.82;;;10.70;99.90;;;;;;4990550;28;20300;-69
2022/11/05 01:36:15;;;;;;;20.45;8.35;;;10.70;99.90;;;;;;4991524;28;20437;-69
2022/11/05 01:38:41;;;;;;;22.52;7.53;;;10.70;99.90;;;;;;4992119;28;20026;-70
2022/11/05 01:41:07;;;;;;;19.85;7.97;;;10.60;99.90;;;;;;4991562;28;20072;-70
2022/11/05 01:43:49;;;;;;;16.05;6.95;;;10.60;99.90;;;;;;4991745;28;20031;-70
2022/11/05 01:46:18;;;;;;;18.80;7.10;;;10.60;99.90;;;;;;4992166;28;20026;-70
2022/11/05 01:48:47;;;;;;;22.20;8.20;;;10.60;99.90;;;;;;4996321;28;20197;-70
2022/11/05 01:51:16;;;;;;;22.20;7.68;;;10.60;99.90;;;;;;4995648;28;20050;-70
2022/11/05 01:53:57;;;;;;;18.05;7.60;;;10.70;99.90;;;;;;4996035;28;20014;-71
2022/11/05 01:56:34;;;;;;;16.35;7.70;;;10.50;99.90;;;;;;4999211;28;20297;-71
2022/11/05 01:59:10;;;;;;;18.03;6.73;;;10.50;99.90;;;;;;4999349;28;20034;-70
2022/11/05 02:01:36;;;;;;;13.60;6.80;;;10.50;99.90;;;;;;4998003;28;20260;-70
2022/11/05 02:04:07;;;;;;;15.95;6.93;;;10.50;99.90;;;;;;4994551;28;20472;-71
2022/11/05 02:06:38;;;;;;;11.98;6.25;;;10.50;99.90;;;;;;4994984;28;20026;-70
2022/11/05 02:09:15;;;;;;;19.05;7.53;;;10.50;99.90;;;;;;4994732;28;20018;-70
2022/11/05 02:11:41;;;;;;;22.35;7.25;;;10.50;99.90;;;;;;4995017;28;20064;-70
2022/11/05 02:14:07;;;;;;;18.75;7.32;;;10.50;99.90;;;;;;4994686;28;20034;-70
2022/11/05 02:16:55;;;;;;;18.13;6.90;;;10.50;99.90;;;;;;4993640;28;20053;-70
2022/11/05 02:19:52;;;;;;;19.45;7.07;;;10.50;99.90;;;;;;4994713;28;20054;-70
2022/11/05 02:22:23;;;;;;;20.88;6.85;;;10.50;99.90;;;;;;4994587;28;20046;-70
2022/11/05 02:25:10;;;;;;;12.02;6.07;;;10.50;99.90;;;;;;4994587;28;20034;-70
2022/11/05 02:28:10;;;;;;;15.18;5.93;;;10.50;99.90;;;;;;4994409;28;20066;-71
2022/11/05 02:30:53;;;;;;;13.57;5.88;;;10.40;99.90;;;;;;4993188;28;20038;-70
2022/11/05 02:33:33;;;;;;;12.05;5.20;;;10.40;99.90;;;;;;4993443;28;20032;-70
2022/11/05 02:36:04;;;;;;;13.63;5.43;;;10.40;99.90;;;;;;4993880;28;20061;-70
2022/11/05 02:39:04;;;;;;;12.68;5.32;;;10.40;99.90;;;;;;4994493;28;20026;-71
2022/11/05 02:41:37;;;;;;;14.93;5.43;;;10.40;99.90;;;;;;4995543;28;20041;-70
2022/11/05 02:44:06;;;;;;;13.85;5.28;;;10.40;99.90;;;;;;4993015;28;20027;-71
2022/11/05 02:47:07;;;;;;;9.82;4.88;;;10.40;99.90;;;;;;4993943;28;20050;-70
2022/11/05 02:49:43;;;;;;;14.23;5.07;;;10.40;99.90;;;;;;4994003;28;20031;-70
2022/11/05 02:52:19;;;;;;;16.70;5.47;;;10.40;99.90;;;;;;4993866;28;20118;-71
2022/11/05 02:54:57;;;;;;;14.63;5.30;;;10.40;99.90;;;;;;4994063;28;20034;-71
2022/11/05 02:57:23;;;;;;;11.70;5.07;;;10.40;99.90;;;;;;4994314;28;20038;-70
2022/11/05 02:59:58;;;;;;;17.83;4.95;;;10.40;99.90;;;;;;4996224;28;20364;-69
2022/11/05 03:02:24;;;;;;;13.40;4.88;;;10.30;99.90;;;;;;4993811;28;20034;-70
2022/11/05 03:04:50;;;;;;;16.98;5.28;;;10.30;99.90;;;;;;4993757;28;20101;-69
2022/11/05 03:07:18;;;;;;;16.30;4.88;;;10.30;99.90;;;;;;4993364;28;20038;-69
2022/11/05 03:10:06;;;;;;;15.02;4.65;;;10.30;99.90;;;;;;4993389;28;20081;-69
2022/11/05 03:12:45;;;;;;;14.40;4.28;;;10.30;99.90;;;;;;4992264;28;20035;-70
2022/11/05 03:15:29;;;;;;;16.75;4.28;;;10.30;99.90;;;;;;4994014;28;20543;-70
2022/11/05 03:17:57;;;;;;;16.67;3.80;;;10.20;99.90;;;;;;4995656;28;20041;-70
2022/11/05 03:20:43;;;;;;;11.73;4.15;;;10.20;99.90;;;;;;4993652;28;20138;-70
2022/11/05 03:23:16;;;;;;;13.13;4.00;;;10.20;99.90;;;;;;4993289;28;20030;-70
2022/11/05 03:25:58;;;;;;;20.70;4.10;;;10.30;99.90;;;;;;4993325;28;20456;-70
2022/11/05 03:28:28;;;;;;;20.70;4.53;;;10.30;99.90;;;;;;4993103;28;20128;-69
2022/11/05 03:30:55;;;;;;;15.13;4.47;;;10.30;99.90;;;;;;4993415;28;20097;-69
2022/11/05 03:33:26;;;;;;;19.10;4.28;;;10.30;99.90;;;;;;4993604;28;20026;-70
2022/11/05 03:35:59;;;;;;;14.35;4.10;;;10.30;99.90;;;;;;4995254;28;20050;-70
2022/11/05 03:38:29;;;;;;;14.70;4.15;;;10.30;99.90;;;;;;4993008;28;20357;-70
2022/11/05 03:40:58;;;;;;;16.33;3.55;;;10.30;99.90;;;;;;4992962;28;20106;-70
2022/11/05 03:43:29;;;;;;;10.63;3.60;;;10.30;99.90;;;;;;4991803;28;20070;-71
2022/11/05 03:46:29;;;;;;;18.25;3.47;;;10.30;99.90;;;;;;4992826;28;20062;-71
2022/11/05 03:48:57;;;;;;;13.40;3.50;;;10.30;99.90;;;;;;4971161;28;20411;-71
2022/11/05 03:51:26;;;;;;;;;;;10.30;99.90;;;;;;4992150;28;20033;-70
2022/11/05 03:53:58;;;;;;;15.60;3.45;;;10.20;99.90;;;;;;4993447;28;19948;-71
2022/11/05 03:56:53;;;;;;;13.48;3.50;;;10.20;99.90;;;;;;4991938;28;20031;-70
2022/11/05 03:59:20;;;;;;;11.75;3.15;;;10.20;99.90;;;;;;4992847;28;20295;-71
2022/11/05 04:01:46;;;;;;;13.70;3.17;;;10.20;99.90;;;;;;4993108;28;20030;-70
2022/11/05 04:04:12;;;;;;;14.25;3.38;;;10.10;99.90;;;;;;4992881;28;20384;-69
2022/11/05 04:14:53;;;;;;;12.45;3.25;;;10.20;99.90;;;;;;4993483;28;20041;-70
2022/11/05 04:17:19;;;;;;;9.90;2.72;;;10.10;99.90;;;;;;4992093;28;20031;-70
2022/11/05 04:25:16;;;;;;;11.05;2.65;;;10.10;99.90;;;;;;4992748;28;20108;-70
2022/11/05 04:27:43;;;;;;;14.68;3.08;;;10.10;99.90;;;;;;4992368;28;20046;-69
2022/11/05 04:30:19;;;;;;;14.13;2.55;;;10.10;99.90;;;;;;4992250;28;20026;-69
2022/11/05 04:33:04;;;;;;;8.30;3.22;;;10.10;99.90;;;;;;4992654;28;20026;-70
2022/11/05 04:35:36;;;;;;;11.60;2.58;;;10.10;99.90;;;;;;4993136;28;20038;-70
2022/11/05 04:38:07;;;;;;;18.15;2.65;;;10.10;99.90;;;;;;4992278;28;20468;-70
2022/11/05 04:40:34;;;;;;;9.80;3.00;;;10.10;99.90;;;;;;4992132;28;20452;-70
2022/11/05 04:42:59;;;;;;;7.40;2.55;;;10.10;99.90;;;;;;4990934;28;20469;-70
2022/11/05 04:45:28;;;;;;;15.18;2.72;;;10.00;99.90;;;;;;4992535;28;20037;-70
2022/11/05 04:47:53;;;;;;;;;;;10.00;99.90;;;;;;4992739;28;20030;-70
2022/11/05 04:50:19;;;;;;;11.00;2.33;;;10.00;99.90;;;;;;4992281;28;20030;-70
2022/11/05 04:52:45;;;;;;;12.95;2.42;;;10.10;99.90;;;;;;4992118;28;20030;-70
2022/11/05 04:55:11;;;;;;;9.60;3.13;;;10.00;99.90;;;;;;4992004;28;20038;-70
2022/11/05 04:57:36;;;;;;;15.13;3.00;;;10.00;99.90;;;;;;4991530;28;20046;-68
2022/11/05 05:00:04;;;;;;;16.80;2.50;;;9.80;99.90;;;;;;4991479;28;20428;-69
2022/11/05 05:02:30;;;;;;;;;;;10.00;99.90;;;;;;4992429;28;20504;-70
2022/11/05 05:04:56;;;;;;;6.15;2.17;;;10.00;99.90;;;;;;4991560;28;20225;-69
2022/11/05 05:07:21;;;;;;;15.32;3.05;;;10.00;99.90;;;;;;4990395;28;20038;-70
2022/11/05 05:09:47;;;;;;;11.38;2.17;;;10.00;99.90;;;;;;4991575;28;20073;-71
2022/11/05 05:12:13;;;;;;;8.20;2.25;;;9.90;99.90;;;;;;4991055;28;20126;-71
2022/11/05 05:14:38;;;;;;;9.23;2.47;;;10.00;99.90;;;;;;4991743;28;20345;-69
2022/11/05 05:17:04;;;;;;;12.13;2.40;;;9.90;99.90;;;;;;4991457;28;20030;-70
2022/11/05 05:21:37;;;;;;;14.35;2.45;;;9.90;99.90;;;;;;4991456;28;20042;-69
2022/11/05 05:22:16;;;;;;;10.30;2.20;;;9.90;99.90;;;;;;4991512;28;20100;-70
2022/11/05 05:24:41;;;;;;;7.88;2.33;;;9.90;99.90;;;;;;4991313;28;20026;-70
2022/11/05 05:27:07;;;;;;;8.80;2.75;;;9.90;99.90;;;;;;4991383;28;20041;-69
2022/11/05 05:29:33;;;;;;;14.88;2.25;;;10.00;99.90;;;;;;4993798;28;20023;-68
2022/11/05 05:31:59;;;;;;;15.88;3.17;;;9.90;99.90;;;;;;4995513;28;20050;-69
2022/11/05 05:34:24;;;;;;;11.63;2.35;;;9.90;99.90;;;;;;4994418;28;20038;-70
2022/11/05 05:36:50;;;;;;;8.77;2.58;;;9.90;99.90;;;;;;4994534;28;20054;-69
2022/11/05 05:39:16;;;;;;;16.30;3.15;;;9.90;99.90;;;;;;4995069;28;20089;-69
2022/11/05 05:41:41;;;;;;;10.20;2.22;;;9.80;99.90;;;;;;4995679;28;20030;-70
2022/11/05 05:44:07;;;;;;;13.95;2.53;;;9.80;99.90;;;;;;4995378;28;20065;-69
2022/11/05 05:46:33;;;;;;;12.52;2.70;;;9.80;99.90;;;;;;4995101;28;20050;-70
2022/11/05 05:48:58;;;;;;;20.55;2.33;;;9.80;99.90;;;;;;4995044;28;20048;-69
2022/11/05 05:51:24;;;;;;;12.95;2.78;;;9.80;99.90;;;;;;4995187;28;20026;-71
2022/11/05 05:53:52;;;;;;;6.03;2.08;;;9.80;99.90;;;;;;4994886;28;20018;-69
2022/11/05 05:56:19;;;;;;;12.35;2.33;;;9.80;99.90;;;;;;4995364;28;20034;-68
2022/11/05 05:58:45;;;;;;;11.13;2.47;;;9.80;99.90;;;;;;4995072;28;20305;-70
2022/11/05 06:01:13;;;;;;;6.18;1.92;;;9.70;99.90;;;;;;4995016;28;20104;-71
2022/11/05 06:03:39;;;;;;;7.03;2.15;;;9.70;99.90;;;;;;4994801;28;20034;-71
2022/11/05 06:06:14;;;;;;;13.82;2.58;;;9.70;99.90;;;;;;4994709;28;20352;-70
2022/11/05 06:08:41;;;;;;;11.38;2.20;;;9.70;99.90;;;;;;4993834;28;20092;-71
2022/11/05 06:11:07;;;;;;;7.32;1.80;;;9.70;99.90;;;;;;4994747;28;20054;-71
2022/11/05 06:13:32;;;;;;;12.15;3.13;;;9.70;99.90;;;;;;4994612;28;20034;-70
2022/11/05 06:16:07;;;;;;;19.50;3.92;;;9.70;99.90;;;;;;4994746;28;20043;-70
2022/11/05 06:18:34;;;;;;;17.50;2.55;;;9.60;99.90;;;;;;4994395;28;20169;-70
2022/11/05 06:21:05;;;;;;;12.85;2.10;;;9.70;99.90;;;;;;4994456;28;20106;-70
2022/11/05 06:23:34;;;;;;;11.77;2.47;;;9.60;99.90;;;;;;4994883;28;20552;-71
2022/11/05 06:26:05;;;;;;;13.35;1.90;;;9.70;99.90;;;;;;4993322;28;20053;-70
2022/11/05 06:28:32;;;;;;;15.77;2.55;;;9.70;99.90;;;;;;4994266;28;20035;-70
2022/11/05 06:30:58;;;;;;;13.63;2.30;;;9.60;99.90;;;;;;4994171;28;20053;-69
2022/11/05 06:33:25;;;;;;;10.40;1.90;;;9.60;99.90;;;;;;4992916;28;20336;-69
2022/11/05 06:35:51;;;;;;;11.02;1.70;;;9.70;99.90;;;;;;4993574;28;20030;-69
2022/11/05 06:38:17;;;;;;;7.95;2.53;;;9.60;99.90;;;;;;4993769;28;20099;-70
2022/11/05 06:40:43;;;;;;;8.07;2.42;;;9.60;99.90;;;;;;4993182;28;20049;-68
2022/11/05 06:43:08;;;;;;;10.05;1.98;;;9.60;99.90;;;;;;4993926;28;20030;-68
2022/11/05 06:45:34;;;;;;;10.93;2.70;;;9.50;99.90;;;;;;4993938;28;20026;-68
2022/11/05 06:47:59;;;;;;;8.43;2.30;;;9.50;99.90;;;;;;4993574;28;20109;-68
2022/11/05 06:50:26;;;;;;;7.35;2.05;;;9.40;99.90;;;;;;4994195;28;20058;-68
2022/11/05 06:53:00;;;;;;;12.33;2.43;;;9.40;99.90;;;;;;4993992;28;20415;-69
2022/11/05 06:55:28;;;;;;;10.02;2.67;;;9.30;99.90;;;;;;4993561;28;20096;-68
2022/11/05 06:57:54;;;;;;;14.80;2.47;;;9.20;99.90;;;;;;4993402;28;20101;-68
2022/11/05 07:00:20;;;;;;;12.73;1.98;;;9.20;99.90;;;;;;4993555;28;20027;-69
2022/11/05 07:02:46;;;;;;;10.15;2.75;;;9.20;99.90;;;;;;4993892;28;20364;-68
2022/11/05 07:05:13;;;;;;;8.70;2.00;;;9.20;99.90;;;;;;4994286;28;20042;-69
2022/11/05 07:07:40;;;;;;;16.65;2.15;;;9.20;99.90;;;;;;4993577;28;20030;-68
2022/11/05 07:10:08;;;;;;;9.95;2.35;;;9.20;99.90;;;;;;4993363;28;20042;-69
2022/11/05 07:12:33;;;;;;;;;;;9.20;99.90;;;;;;4993489;28;20076;-70
2022/11/05 07:14:59;;;;;;;8.10;2.60;;;9.20;99.90;;;;;;4993298;28;19949;-69
2022/11/05 07:17:25;;;;;;;10.88;2.40;;;9.20;99.90;;;;;;4993631;28;20510;-70
2022/11/05 07:19:50;;;;;;;12.70;2.78;;;9.10;99.90;;;;;;4993307;28;20030;-69
2022/11/05 07:22:16;;;;;;;9.82;2.40;;;9.20;99.90;;;;;;4993034;28;20484;-68
2022/11/05 07:24:42;;;;;;;7.05;2.22;;;9.20;99.90;;;;;;4993227;28;20125;-68
2022/11/05 07:27:08;;;;;;;23.77;4.63;;;9.20;99.90;;;;;;4992954;28;20022;-69
2022/11/05 07:29:34;;;;;;;11.55;4.03;;;9.30;99.90;;;;;;4993397;28;20396;-68
2022/11/05 07:31:59;;;;;;;11.73;3.15;;;9.40;99.90;;;;;;4992990;28;20042;-70
2022/11/05 07:34:25;;;;;;;10.50;3.15;;;9.40;99.90;;;;;;4992746;28;20069;-70
2022/11/05 07:36:50;;;;;;;12.82;2.88;;;9.40;99.90;;;;;;4993047;28;20046;-70
2022/11/05 07:39:16;;;;;;;9.18;2.83;;;9.40;99.90;;;;;;4992646;28;20511;-70
2022/11/05 07:41:42;;;;;;;18.00;3.90;;;9.50;99.90;;;;;;4993091;28;20087;-70
2022/11/05 07:44:07;;;;;;;15.48;3.30;;;9.50;99.90;;;;;;4992368;28;20372;-70
2022/11/05 07:46:33;;;;;;;6.68;2.80;;;9.60;99.90;;;;;;4992840;28;20030;-71
2022/11/05 07:48:59;;;;;;;7.90;3.20;;;9.60;99.90;;;;;;4992594;28;20041;-71
2022/11/05 07:51:25;;;;;;;9.55;3.13;;;9.70;99.90;;;;;;4992396;28;20074;-71
2022/11/05 07:53:50;;;;;;;10.60;2.75;;;9.70;99.90;;;;;;4992052;28;20037;-69
2022/11/05 07:56:16;;;;;;;11.13;3.10;;;9.80;99.90;;;;;;4992513;28;20472;-70
2022/11/05 07:58:42;;;;;;;25.08;8.25;;;9.80;99.90;;;;;;4992316;28;20038;-70
2022/11/05 08:01:08;;;;;;;192.82;95.28;;;9.80;99.90;;;;;;4991272;28;20101;-70
2022/11/05 08:03:34;;;;;;;27.40;12.80;;;9.90;99.90;;;;;;4992142;28;20030;-70
2022/11/05 08:06:00;;;;;;;10.90;4.32;;;9.90;99.90;;;;;;4992820;28;20049;-70
2022/11/05 08:08:26;;;;;;;17.25;4.97;;;9.90;99.90;;;;;;4991481;28;20484;-70
2022/11/05 08:10:51;;;;;;;13.57;4.07;;;10.00;99.90;;;;;;4992100;28;20496;-70
2022/11/05 08:13:27;;;;;;;12.27;3.72;;;10.00;99.90;;;;;;5136760;27;20384;-71
2022/11/05 08:15:55;;;;;;;11.02;3.40;;;10.10;99.90;;;;;;5128890;27;20092;-70
2022/11/05 08:18:21;;;;;;;12.27;3.58;;;10.20;99.90;;;;;;5129111;27;20028;-71
2022/11/05 08:20:47;;;;;;;16.40;3.67;;;10.30;99.90;;;;;;5129013;28;20024;-72
2022/11/05 08:23:13;;;;;;;11.85;3.70;;;10.50;99.90;;;;;;5129005;27;20047;-72
2022/11/05 08:25:39;;;;;;;12.40;4.00;;;10.80;99.90;;;;;;5128780;27;20517;-72
2022/11/05 08:28:09;;;;;;;11.57;3.67;;;11.10;99.90;;;;;;5110496;28;20511;-72
2022/11/05 08:30:35;;;;;;;9.38;3.92;;;11.40;99.90;;;;;;5128616;27;20059;-72
2022/11/05 08:33:08;;;;;;;8.23;3.58;;;11.60;99.90;;;;;;5129350;27;20505;-70
2022/11/05 08:35:35;;;;;;;10.23;3.92;;;11.70;99.40;;;;;;5129719;28;20062;-71
2022/11/05 08:38:03;;;;;;;12.55;4.00;;;11.80;99.30;;;;;;5128598;27;20050;-73
2022/11/05 08:40:31;;;;;;;9.50;3.65;;;11.80;99.10;;;;;;5128946;27;20031;-71
2022/11/05 08:42:57;;;;;;;12.98;3.80;;;11.80;98.80;;;;;;5110454;28;20561;-72
2022/11/05 08:45:24;;;;;;;16.27;4.03;;;11.90;98.60;;;;;;5128617;27;20106;-71
2022/11/05 08:47:50;;;;;;;14.10;3.60;;;11.80;98.60;;;;;;5129108;28;20072;-70
2022/11/05 08:50:16;;;;;;;8.95;3.95;;;11.80;98.70;;;;;;5128678;27;20421;-71
2022/11/05 08:52:42;;;;;;;11.07;4.07;;;11.80;98.70;;;;;;5128441;27;20035;-71
2022/11/05 08:55:08;;;;;;;15.00;4.22;;;11.70;98.70;;;;;;5128433;27;20039;-72
2022/11/05 08:57:34;;;;;;;9.23;3.88;;;11.80;98.80;;;;;;5110120;28;20035;-72
2022/11/05 08:59:59;;;;;;;9.82;4.15;;;11.80;98.70;;;;;;5127884;27;20469;-72
2022/11/05 09:02:25;;;;;;;15.40;3.85;;;11.80;98.50;;;;;;5110443;28;20035;-70
2022/11/05 09:04:50;;;;;;;16.58;3.90;;;11.80;98.80;;;;;;5128452;28;20053;-70
2022/11/05 09:07:16;;;;;;;12.13;3.95;;;11.80;98.80;;;;;;5128234;27;20036;-74
2022/11/05 09:09:42;;;;;;;11.93;3.97;;;11.90;98.80;;;;;;5109721;28;20024;-72
2022/11/05 09:12:07;;;;;;;7.22;3.20;;;12.00;98.80;;;;;;5109027;27;20046;-72
2022/11/05 09:14:33;;;;;;;6.50;3.00;;;11.90;98.40;;;;;;5128347;28;20459;-71
2022/11/05 09:16:59;;;;;;;9.73;3.10;;;11.90;98.60;;;;;;5127693;27;20038;-72
2022/11/05 09:19:24;;;;;;;12.75;3.05;;;11.80;98.40;;;;;;5127886;27;20105;-70
2022/11/05 09:21:50;;;;;;;7.75;3.17;;;11.90;98.40;;;;;;5127785;27;20039;-72
2022/11/05 09:24:16;;;;;;;7.05;3.10;;;12.00;98.60;;;;;;5116458;28;20057;-72
2022/11/05 09:26:41;;;;;;;122.72;58.45;;;12.00;98.10;;;;;;5114464;28;20357;-71
2022/11/05 09:29:07;;;;;;;238.90;122.57;;;12.00;98.00;;;;;;5095892;28;20044;-71
2022/11/05 09:31:33;;;;;;;21.33;9.35;;;12.00;98.30;;;;;;5095991;28;20070;-71
2022/11/05 09:33:58;;;;;;;10.63;4.43;;;12.10;98.30;;;;;;5113847;28;20027;-71
2022/11/05 09:36:24;;;;;;;7.75;3.78;;;12.20;98.20;;;;;;5113573;28;20035;-71
2022/11/05 09:38:50;;;;;;;6.53;3.55;;;12.20;98.00;;;;;;5113973;28;20031;-70
2022/11/05 09:41:30;;;;;;;10.02;3.58;;;12.30;97.90;;;;;;5095331;28;20035;-70
2022/11/05 09:44:08;;;;;;;9.63;4.00;;;12.30;97.90;;;;;;5113354;28;20081;-69
2022/11/05 09:46:54;;;;;;;7.82;3.53;;;12.30;97.70;;;;;;5113377;28;20032;-72
2022/11/05 09:49:41;;;;;;;10.52;3.80;;;12.20;97.60;;;;;;5113427;28;20031;-70
2022/11/05 09:52:15;;;;;;;10.75;3.70;;;12.30;97.70;;;;;;5113233;28;20043;-73
2022/11/05 09:54:41;;;;;;;13.02;3.88;;;12.40;97.60;;;;;;5113658;28;20039;-73
2022/11/05 09:57:14;;;;;;;13.38;4.45;;;12.40;97.50;;;;;;5095267;28;20127;-75
2022/11/05 09:59:46;;;;;;;7.65;3.78;;;12.40;97.40;;;;;;5113738;28;20027;-73
2022/11/05 10:02:16;;;;;;;10.73;4.05;;;12.50;97.50;;;;;;5113065;28;20491;-74
2022/11/05 10:04:43;;;;;;;9.25;3.40;;;12.60;97.60;;;;;;5113054;28;20041;-73
2022/11/05 10:07:14;;;;;;;8.25;4.13;;;13.20;98.00;;;;;;5094837;28;20032;-71
2022/11/05 10:09:54;;;;;;;13.45;5.70;;;13.70;97.00;;;;;;5113055;28;20219;-70
2022/11/05 10:12:22;;;;;;;8.18;4.03;;;14.70;97.30;;;;;;5094874;28;20054;-68
2022/11/05 10:15:09;;;;;;;8.27;3.85;;;15.40;95.60;;;;;;5095175;28;20019;-70
2022/11/05 10:17:37;;;;;;;10.43;3.47;;;15.60;94.70;;;;;;5113018;28;20059;-68
2022/11/05 10:20:36;;;;;;;10.38;3.85;;;16.50;94.10;;;;;;5091071;28;20122;-71
2022/11/05 10:23:15;;;;;;;8.82;3.65;;;17.60;93.20;;;;;;5080933;28;20052;-72
2022/11/05 10:25:56;;;;;;;9.05;3.70;;;18.90;93.80;;;;;;5092296;28;20457;-72
2022/11/05 10:28:25;;;;;;;5.82;3.10;;;19.60;91.50;;;;;;5092463;28;20444;-70
2022/11/05 10:31:01;;;;;;;6.57;3.58;;;20.10;88.40;;;;;;5092756;28;20491;-72
2022/11/05 10:33:59;;;;;;;10.32;4.00;;;20.60;88.70;;;;;;5074482;28;20032;-71
2022/11/05 10:36:28;;;;;;;4.90;3.30;;;21.20;88.20;;;;;;5085573;28;20028;-72
2022/11/05 10:39:04;;;;;;;7.75;3.50;;;21.50;85.80;;;;;;5074595;28;20035;-73
2022/11/05 10:41:51;;;;;;;8.90;3.70;;;21.00;83.90;;;;;;5092447;28;20032;-73
2022/11/05 10:44:35;;;;;;;8.13;3.78;;;21.90;82.80;;;;;;5092235;28;20024;-74
2022/11/05 10:47:22;;;;;;;7.85;3.10;;;22.10;82.00;;;;;;5092128;28;20028;-72
2022/11/05 10:50:09;;;;;;;9.02;4.18;;;22.50;79.40;;;;;;5091983;28;20131;-73
2022/11/05 10:52:38;;;;;;;8.27;3.40;;;22.40;79.60;;;;;;5091784;28;20028;-72
2022/11/05 10:55:15;;;;;;;7.40;3.70;;;22.50;77.30;;;;;;5091794;28;20265;-72
2022/11/05 10:57:41;;;;;;;7.53;3.58;;;21.80;73.90;;;;;;5091673;28;20032;-72
2022/11/05 11:00:17;;;;;;;7.07;3.72;;;21.80;78.30;;;;;;5091450;28;20020;-72
2022/11/05 11:02:45;;;;;;;9.18;3.90;;;22.40;77.00;;;;;;5092072;28;20031;-72
2022/11/05 11:05:19;;;;;;;10.63;4.28;;;22.60;77.70;;;;;;5091649;28;20028;-73
2022/11/05 11:08:02;;;;;;;10.07;4.30;;;23.20;76.20;;;;;;5091668;28;20047;-73
2022/11/05 11:10:46;;;;;;;7.85;4.28;;;23.20;73.60;;;;;;5091286;28;20028;-74
2022/11/05 11:13:46;;;;;;;9.23;4.72;;;23.60;76.20;;;;;;5091088;28;20158;-72
2022/11/05 11:16:15;;;;;;;15.20;8.23;;;23.40;72.20;;;;;;5073628;28;20143;-76
2022/11/05 11:18:42;;;;;;;13.73;6.07;;;23.20;73.30;;;;;;5091345;28;20028;-74
2022/11/05 11:21:18;;;;;;;13.15;5.53;;;23.10;71.90;;;;;;5073284;28;20024;-71
2022/11/05 11:24:15;;;;;;;12.73;5.78;;;23.20;72.90;;;;;;5073592;28;20471;-72
2022/11/05 11:26:41;;;;;;;11.57;4.75;;;23.60;72.30;;;;;;5091216;28;20055;-74
2022/11/05 11:29:17;;;;;;;10.70;4.82;;;22.90;70.00;;;;;;5091026;28;20040;-72
2022/11/05 11:31:43;;;;;;;8.20;4.57;;;22.90;69.80;;;;;;5090912;28;20046;-72
2022/11/05 11:34:21;;;;;;;8.70;4.60;;;22.60;70.60;;;;;;5090851;28;20043;-74
2022/11/05 11:36:49;;;;;;;11.98;4.82;;;22.00;72.00;;;;;;5072886;28;20111;-72
2022/11/05 11:39:26;;;;;;;11.27;5.63;;;21.50;72.80;;;;;;5090805;28;20058;-73
2022/11/05 11:41:57;;;;;;;9.18;5.53;;;20.50;74.90;;;;;;5091266;28;20046;-72
2022/11/05 11:44:28;;;;;;;11.00;5.25;;;20.20;76.10;;;;;;5073259;28;20055;-73
2022/11/05 11:46:57;;;;;;;14.13;5.47;;;20.00;76.70;;;;;;5073020;28;20381;-73
2022/11/05 11:49:48;;;;;;;11.88;5.85;;;19.50;76.80;;;;;;5091301;28;20047;-74
2022/11/05 11:52:20;;;;;;;13.13;5.80;;;19.20;77.70;;;;;;5090653;28;20036;-74
2022/11/05 11:54:46;;;;;;;13.05;5.22;;;18.60;78.40;;;;;;5073055;28;20032;-76
2022/11/05 11:57:28;;;;;;;17.10;5.85;;;18.50;79.10;;;;;;5090796;28;20027;-73
2022/11/05 11:59:55;;;;;;;11.35;5.43;;;18.30;80.30;;;;;;5073188;28;20020;-75
2022/11/05 12:03:05;;;;;;;11.85;5.45;;;18.10;81.20;;;;;;5090491;28;20469;-75
2022/11/05 12:05:46;;;;;;;11.18;6.18;;;17.40;80.80;;;;;;5090523;28;20362;-72
2022/11/05 12:08:23;;;;;;;16.70;5.20;;;17.20;82.90;;;;;;5090478;28;20516;-73
2022/11/05 12:11:14;;;;;;;14.35;5.50;;;17.20;83.10;;;;;;5090154;28;20505;-74
2022/11/05 12:13:58;;;;;;;13.57;5.75;;;17.30;83.00;;;;;;5078982;28;20044;-74
2022/11/05 12:16:36;;;;;;;11.43;5.38;;;17.20;83.10;;;;;;5090481;28;20531;-74
2022/11/05 12:19:24;;;;;;;14.88;6.22;;;16.70;83.10;;;;;;5090632;28;20028;-77
2022/11/05 12:22:19;;;;;;;15.15;6.88;;;16.70;84.40;;;;;;5072397;28;20099;-75
2022/11/05 12:25:12;;;;;;;16.95;6.55;;;16.70;85.10;;;;;;5090549;28;20525;-74
2022/11/05 12:27:55;;;;;;;12.20;6.43;;;16.70;84.80;;;;;;5072349;28;20024;-75
2022/11/05 12:30:22;;;;;;;12.60;6.53;;;16.40;84.10;;;;;;5090508;28;20497;-80
2022/11/05 12:33:11;;;;;;;15.05;6.10;;;16.40;84.10;;;;;;5090754;28;20497;-78
2022/11/05 12:35:49;;;;;;;11.90;5.68;;;16.40;84.50;;;;;;5090399;28;20062;-71
2022/11/05 12:38:45;;;;;;;11.85;6.28;;;16.40;85.30;;;;;;5090167;28;20457;-72
2022/11/05 12:41:20;;;;;;;16.90;7.55;;;16.40;85.10;;;;;;5089985;28;20035;-74
2022/11/05 12:43:46;;;;;;;18.05;7.18;;;16.20;85.20;;;;;;5090079;28;20033;-73
2022/11/05 12:46:18;;;;;;;23.45;10.57;;;16.10;85.90;;;;;;5072424;28;20596;-74
2022/11/05 12:49:02;;;;;;;32.53;15.48;;;16.10;86.20;;;;;;5089935;28;20025;-71
2022/11/05 12:51:46;;;;;;;18.83;9.63;;;16.20;85.90;;;;;;5089832;28;20036;-71
2022/11/05 12:54:38;;;;;;;15.13;7.05;;;16.00;85.40;;;;;;5089244;28;20028;-74
2022/11/05 12:57:09;;;;;;;13.20;6.85;;;15.80;86.00;;;;;;5055736;28;20473;-74
2022/11/05 12:59:46;;;;;;;14.27;6.93;;;15.70;86.40;;;;;;5075316;28;20103;-76
2022/11/05 13:02:39;;;;;;;15.00;6.87;;;15.90;87.00;;;;;;5075761;28;20032;-74
2022/11/05 13:05:12;;;;;;;13.70;6.55;;;15.80;86.80;;;;;;5093964;28;20036;-72
2022/11/05 13:07:47;;;;;;;12.93;5.82;;;15.90;86.50;;;;;;5075996;28;20032;-73
2022/11/05 13:10:24;;;;;;;14.02;5.75;;;15.90;86.50;;;;;;5093715;28;20036;-71
2022/11/05 13:12:59;;;;;;;13.02;6.47;;;15.90;86.60;;;;;;5093422;28;20040;-73
2022/11/05 13:15:30;;;;;;;12.52;5.80;;;15.60;86.40;;;;;;5075614;28;20028;-72
2022/11/05 13:18:00;;;;;;;11.60;5.85;;;15.70;86.00;;;;;;5094048;28;20038;-72
2022/11/05 13:20:37;;;;;;;11.50;5.78;;;15.40;86.30;;;;;;5093877;28;20130;-72
2022/11/05 13:23:19;;;;;;;13.18;5.03;;;15.40;86.60;;;;;;5093667;28;20355;-71
2022/11/05 13:25:53;;;;;;;11.98;5.72;;;15.40;86.50;;;;;;5093504;28;20419;-73
2022/11/05 13:28:40;;;;;;;10.32;5.55;;;15.40;87.00;;;;;;5093379;28;20474;-72
2022/11/05 13:31:11;;;;;;;9.48;4.95;;;15.40;86.20;;;;;;5075597;28;20028;-71
2022/11/05 13:33:43;;;;;;;8.57;4.97;;;15.50;86.40;;;;;;5093288;28;20115;-71
2022/11/05 13:39:20;;;;;;;12.70;5.40;;;15.30;86.90;;;;;;5093459;28;20465;-72
2022/11/05 13:41:56;;;;;;;8.30;5.05;;;15.40;86.50;;;;;;5094382;28;20123;-72
2022/11/05 13:44:27;;;;;;;9.02;4.72;;;15.40;86.80;;;;;;5093397;28;20063;-72
2022/11/05 13:47:06;;;;;;;12.05;5.07;;;15.50;86.60;;;;;;5075433;28;20051;-72
2022/11/05 13:49:47;;;;;;;10.10;4.47;;;15.50;86.60;;;;;;5093166;28;20033;-71